Terminal Aerodrome Forecast
Issued by NWS

Home | Current Version | Previous Version | Text Only | Print | Product List | Glossary On
Versions: 1 2 3 4 5 6 7 8 9 10 11 12 13 14 15 16 17 18 19 20 21 22 23 24 25 26 27 28 29 30 31 32 33 34
000
FTUS45 KGJT 261733
TAFDRO
TAF
KDRO 261733Z 2618/2718 VRB03KT 3SM -SN BR OVC030
      TEMPO 2618/2620 1SM -SN BR OVC020
     FM262000 23009KT P6SM VCSH OVC040
     FM270200 23007KT P6SM VCSH OVC060
     FM270600 02004KT P6SM SCT060 BKN080=

USA.gov is the U.S. government's official web portal to all federal, state and local government web resources and services.